createdAt,value
2023-12-30T00:00:18.952Z,9.279832
2023-12-30T00:01:15.549Z,9.279801
2023-12-30T00:02:14.469Z,9.279841
2023-12-30T00:03:14.486Z,9.279887
2023-12-30T00:04:14.478Z,9.279966
2023-12-30T00:05:14.437Z,9.279951
2023-12-30T00:06:14.463Z,9.279880
2023-12-30T00:07:14.430Z,9.279853
2023-12-30T00:08:14.366Z,9.279844
2023-12-30T00:09:14.352Z,9.279875
2023-12-30T00:10:14.450Z,9.279887
2023-12-30T00:11:14.345Z,9.279896
2023-12-30T00:12:14.299Z,9.279852
2023-12-30T00:13:14.318Z,9.279892
2023-12-30T00:14:14.292Z,9.279855
2023-12-30T00:15:14.271Z,9.279832
2023-12-30T00:16:14.281Z,9.279897
2023-12-30T00:17:14.250Z,9.279944
2023-12-30T00:18:14.290Z,9.279906
2023-12-30T00:19:14.286Z,9.279925
2023-12-30T00:20:14.187Z,9.279952
2023-12-30T00:21:14.165Z,9.279868
2023-12-30T00:22:14.242Z,9.279921
2023-12-30T00:23:14.111Z,9.279950
2023-12-30T00:24:14.103Z,9.279978
2023-12-30T00:25:14.088Z,9.279977
2023-12-30T00:26:14.050Z,9.279993
2023-12-30T00:27:14.056Z,9.280094
2023-12-30T00:28:14.215Z,9.279971
2023-12-30T00:29:14.000Z,9.280050
2023-12-30T00:30:14.012Z,9.280019
2023-12-30T00:31:14.094Z,9.280007
2023-12-30T00:32:13.997Z,9.280009
2023-12-30T00:33:14.011Z,9.280092
2023-12-30T00:34:14.010Z,9.279986
2023-12-30T00:35:13.910Z,9.279952
2023-12-30T00:36:13.883Z,9.280018
2023-12-30T00:37:13.860Z,9.280053
2023-12-30T00:38:15.243Z,9.279994
2023-12-30T00:39:13.833Z,9.280027
2023-12-30T00:40:14.979Z,9.280090
2023-12-30T00:41:13.805Z,9.280187
2023-12-30T00:42:13.784Z,9.280083
2023-12-30T00:43:13.763Z,9.279966
2023-12-30T00:44:13.779Z,9.280030
2023-12-30T00:45:13.705Z,9.280020
2023-12-30T00:46:13.721Z,9.280083
2023-12-30T00:47:13.673Z,9.280022
2023-12-30T00:48:13.756Z,9.279990
2023-12-30T00:49:13.746Z,9.280098
2023-12-30T00:50:13.849Z,9.280235
2023-12-30T00:51:13.624Z,9.280058
2023-12-30T00:52:13.657Z,9.279910
2023-12-30T00:53:13.572Z,9.279938
2023-12-30T00:54:13.555Z,9.280042
2023-12-30T00:55:13.606Z,9.280007
2023-12-30T00:56:13.531Z,9.280027
2023-12-30T00:57:13.488Z,9.279956
2023-12-30T00:58:13.533Z,9.280272
2023-12-30T00:59:13.466Z,9.280060
2023-12-30T01:00:13.543Z,9.280082
2023-12-30T01:01:13.503Z,9.280109
2023-12-30T01:02:13.398Z,9.280199
2023-12-30T01:03:13.484Z,9.280059
2023-12-30T01:04:13.457Z,9.280118
2023-12-30T01:05:13.379Z,9.280007
2023-12-30T01:06:13.388Z,9.280102
2023-12-30T01:07:13.327Z,9.279835
2023-12-30T01:08:13.341Z,9.279859
2023-12-30T01:09:13.273Z,9.279865
2023-12-30T01:10:13.314Z,9.279945
2023-12-30T01:11:13.250Z,9.279999
2023-12-30T01:12:13.241Z,9.279922
2023-12-30T01:13:13.225Z,9.279858
2023-12-30T01:14:13.188Z,9.279899
2023-12-30T01:15:13.178Z,9.279906
2023-12-30T01:16:13.186Z,9.279868
2023-12-30T01:17:13.273Z,9.279812
2023-12-30T01:18:13.167Z,9.279694
2023-12-30T01:19:13.199Z,9.279782
2023-12-30T01:20:13.113Z,9.279864
2023-12-30T01:21:13.065Z,9.279808
2023-12-30T01:22:13.075Z,9.279716
2023-12-30T01:23:14.087Z,9.279779
2023-12-30T01:24:13.025Z,9.279767
2023-12-30T01:25:13.016Z,9.279865
2023-12-30T01:26:12.978Z,9.279880
2023-12-30T01:27:12.963Z,9.279953
2023-12-30T01:28:13.071Z,9.279856
2023-12-30T01:29:12.983Z,9.279845
2023-12-30T01:30:12.997Z,9.279833
2023-12-30T01:31:12.936Z,9.279751
2023-12-30T01:32:12.883Z,9.279883
2023-12-30T01:33:12.890Z,9.279930
2023-12-30T01:34:13.047Z,9.279991
2023-12-30T01:35:12.824Z,9.280002
2023-12-30T01:36:12.805Z,9.279797
2023-12-30T01:37:12.844Z,9.279739
2023-12-30T01:38:12.763Z,9.279960
2023-12-30T01:39:12.870Z,9.279885
2023-12-30T01:40:12.780Z,9.279805
2023-12-30T01:41:12.731Z,9.279870
2023-12-30T01:42:12.696Z,9.279872
2023-12-30T01:43:12.688Z,9.279778
2023-12-30T01:44:12.694Z,9.279782
2023-12-30T01:45:12.687Z,9.279901
2023-12-30T01:46:12.733Z,9.279832
2023-12-30T01:47:12.608Z,9.279824
2023-12-30T01:48:12.709Z,9.279819
2023-12-30T01:49:12.614Z,9.279860
2023-12-30T01:50:12.571Z,9.279685
2023-12-30T01:51:24.257Z,9.279885
2023-12-30T01:52:13.526Z,9.279845
2023-12-30T01:53:12.547Z,9.279870
2023-12-30T01:54:12.505Z,9.279935
2023-12-30T01:55:12.486Z,9.279958
2023-12-30T01:56:12.615Z,9.280050
2023-12-30T01:57:12.418Z,9.280048
2023-12-30T01:58:12.426Z,9.279944
2023-12-30T01:59:12.404Z,9.279936
2023-12-30T02:00:12.393Z,9.280031
2023-12-30T02:01:12.433Z,9.280017
2023-12-30T02:02:12.525Z,9.279984
2023-12-30T02:03:12.322Z,9.280011
2023-12-30T02:04:12.328Z,9.280055
2023-12-30T02:05:14.166Z,9.279910
2023-12-30T02:06:12.276Z,9.279943
2023-12-30T02:07:12.406Z,9.279871
2023-12-30T02:08:12.242Z,9.279919
2023-12-30T02:09:12.285Z,9.279926
2023-12-30T02:10:12.234Z,9.279951
2023-12-30T02:11:12.207Z,9.279927
2023-12-30T02:12:12.179Z,9.279851
2023-12-30T02:13:12.219Z,9.279896
2023-12-30T02:14:12.114Z,9.279891
2023-12-30T02:15:12.127Z,9.279867
2023-12-30T02:16:12.121Z,9.279872
2023-12-30T02:17:12.087Z,9.279895
2023-12-30T02:18:12.109Z,9.279898
2023-12-30T02:19:12.111Z,9.279870
2023-12-30T02:20:12.025Z,9.279862
2023-12-30T02:21:12.004Z,9.279905
2023-12-30T02:22:12.065Z,9.279868
2023-12-30T02:23:11.970Z,9.279929
2023-12-30T02:24:11.997Z,9.279989
2023-12-30T02:25:11.967Z,9.279966
2023-12-30T02:26:11.899Z,9.279972
2023-12-30T02:27:11.892Z,9.279942
2023-12-30T02:28:11.918Z,9.279940
2023-12-30T02:29:11.852Z,9.280005
2023-12-30T02:30:12.033Z,9.279945
2023-12-30T02:31:11.857Z,9.279871
2023-12-30T02:32:11.781Z,9.279865
2023-12-30T02:33:11.829Z,9.279917
2023-12-30T02:34:11.810Z,9.279944
2023-12-30T02:35:11.828Z,9.279932
2023-12-30T02:36:11.758Z,9.279892
2023-12-30T02:37:11.721Z,9.279900
2023-12-30T02:38:11.704Z,9.279805
2023-12-30T02:39:11.702Z,9.279767
2023-12-30T02:40:11.674Z,9.279776
2023-12-30T02:41:11.764Z,9.279951
2023-12-30T02:42:11.628Z,9.280022
2023-12-30T02:43:11.630Z,9.279949
2023-12-30T02:44:11.573Z,9.279938
2023-12-30T02:45:11.581Z,9.279894
2023-12-30T02:46:11.729Z,9.279902
2023-12-30T02:47:11.545Z,9.279784
2023-12-30T02:48:11.652Z,9.279868
2023-12-30T02:49:11.555Z,9.279889
2023-12-30T02:50:11.463Z,9.279819
2023-12-30T02:51:11.446Z,9.279819
2023-12-30T02:52:11.622Z,9.279867
2023-12-30T02:53:11.435Z,9.279881
2023-12-30T02:54:11.400Z,9.279916
2023-12-30T02:55:11.399Z,9.280012
2023-12-30T02:56:11.363Z,9.279880
2023-12-30T02:57:11.418Z,9.279941
2023-12-30T02:58:11.379Z,9.279909
2023-12-30T02:59:11.317Z,9.280036
2023-12-30T03:00:11.308Z,9.280066
2023-12-30T03:01:11.355Z,9.280075
2023-12-30T03:02:11.272Z,9.280109
2023-12-30T03:03:11.279Z,9.280044
2023-12-30T03:04:11.323Z,9.280111
2023-12-30T03:05:11.338Z,9.280068
2023-12-30T03:06:11.265Z,9.279984
2023-12-30T03:07:11.190Z,9.279908
2023-12-30T03:08:11.176Z,9.279899
2023-12-30T03:09:11.148Z,9.279885
2023-12-30T03:10:11.263Z,9.279933
2023-12-30T03:11:11.403Z,9.279971
2023-12-30T03:12:11.076Z,9.279970
2023-12-30T03:13:11.126Z,9.280003
2023-12-30T03:14:11.071Z,9.279834
2023-12-30T03:15:11.027Z,9.279993
2023-12-30T03:16:11.053Z,9.280110
2023-12-30T03:17:11.018Z,9.280178
2023-12-30T03:18:11.062Z,9.280127
2023-12-30T03:19:11.047Z,9.280036
2023-12-30T03:20:11.048Z,9.279889
2023-12-30T03:21:10.939Z,9.279889
2023-12-30T03:22:10.931Z,9.279893
2023-12-30T03:23:10.888Z,9.279993
2023-12-30T03:24:10.862Z,9.280078
2023-12-30T03:25:10.934Z,9.280038
2023-12-30T03:26:10.826Z,9.280013
2023-12-30T03:27:10.819Z,9.280019
2023-12-30T03:28:10.861Z,9.279974
2023-12-30T03:29:10.793Z,9.280019
2023-12-30T03:30:11.012Z,9.280026
2023-12-30T03:31:10.794Z,9.280071
2023-12-30T03:32:10.726Z,9.280047
2023-12-30T03:34:10.939Z,9.279994
2023-12-30T03:35:10.696Z,9.279938
2023-12-30T03:36:10.708Z,9.279717
2023-12-30T03:37:10.685Z,9.279818
2023-12-30T03:38:10.631Z,9.279731
2023-12-30T03:39:10.702Z,9.279766
2023-12-30T03:40:10.600Z,9.279881
2023-12-30T03:41:10.705Z,9.279993
2023-12-30T03:42:10.572Z,9.279917
2023-12-30T03:43:10.575Z,9.279906
2023-12-30T03:44:10.507Z,9.279925
2023-12-30T03:45:10.522Z,9.279905
2023-12-30T03:46:10.501Z,9.279909
2023-12-30T03:47:10.515Z,9.280066
2023-12-30T03:48:10.582Z,9.280041
2023-12-30T03:49:10.503Z,9.279940
2023-12-30T03:50:10.437Z,9.279944
2023-12-30T03:51:11.415Z,9.280105
2023-12-30T03:52:10.413Z,9.280198
2023-12-30T03:53:10.360Z,9.280005
2023-12-30T03:54:10.326Z,9.280230
2023-12-30T03:55:10.328Z,9.280137
2023-12-30T03:56:10.316Z,9.280109
2023-12-30T03:57:10.303Z,9.279999
2023-12-30T03:58:10.439Z,9.279965
2023-12-30T03:59:10.249Z,9.280069
2023-12-30T04:00:10.257Z,9.280071
2023-12-30T04:01:10.349Z,9.280221
2023-12-30T04:02:10.182Z,9.280403
2023-12-30T04:03:10.241Z,9.280357
2023-12-30T04:04:10.177Z,9.280341
2023-12-30T04:05:10.193Z,9.280379
2023-12-30T04:06:10.113Z,9.280427
2023-12-30T04:07:10.120Z,9.280222
2023-12-30T04:08:10.074Z,9.280237
2023-12-30T04:09:10.102Z,9.279922
2023-12-30T04:10:10.068Z,9.279826
2023-12-30T04:11:10.062Z,9.279942
2023-12-30T04:12:09.998Z,9.280085
2023-12-30T04:13:10.046Z,9.280010
2023-12-30T04:14:09.957Z,9.279970
2023-12-30T04:15:09.991Z,9.279749
2023-12-30T04:16:09.924Z,9.279874
2023-12-30T04:17:09.902Z,9.279563
2023-12-30T04:18:09.951Z,9.279752
2023-12-30T04:19:09.954Z,9.279841
2023-12-30T04:20:10.008Z,9.279826
2023-12-30T04:21:09.830Z,9.279843
2023-12-30T04:22:09.893Z,9.279875
2023-12-30T04:23:09.784Z,9.279972
2023-12-30T04:24:09.758Z,9.279791
2023-12-30T04:25:09.797Z,9.279804
2023-12-30T04:26:09.756Z,9.279873
2023-12-30T04:27:09.723Z,9.279721
2023-12-30T04:28:09.743Z,9.279639
2023-12-30T04:29:09.673Z,9.279656
2023-12-30T04:30:09.712Z,9.279453
2023-12-30T04:31:09.882Z,9.279399
2023-12-30T04:32:09.613Z,9.279538
2023-12-30T04:33:09.665Z,9.279470
2023-12-30T04:34:09.854Z,9.279553
2023-12-30T04:35:09.563Z,9.279664
2023-12-30T04:36:09.573Z,9.279778
2023-12-30T04:37:09.565Z,9.279894
2023-12-30T04:38:09.527Z,9.279820
2023-12-30T04:39:09.495Z,9.279714
2023-12-30T04:40:09.540Z,9.279785
2023-12-30T04:41:09.451Z,9.279865
2023-12-30T04:42:09.473Z,9.279712
2023-12-30T04:43:09.466Z,9.279896
2023-12-30T04:44:09.398Z,9.279978
2023-12-30T04:45:09.400Z,9.279857
2023-12-30T04:46:09.390Z,9.279935
2023-12-30T04:47:09.527Z,9.279884
2023-12-30T04:48:09.371Z,9.279848
2023-12-30T04:49:09.445Z,9.279797
2023-12-30T04:50:09.363Z,9.279845
2023-12-30T04:51:09.269Z,9.279907
2023-12-30T04:52:09.302Z,9.279816
2023-12-30T04:53:09.422Z,9.279788
2023-12-30T04:54:09.234Z,9.279838
2023-12-30T04:55:09.313Z,9.279788
2023-12-30T04:56:09.190Z,9.279801
2023-12-30T04:57:09.166Z,9.279896
2023-12-30T04:58:09.329Z,9.279810
2023-12-30T04:59:09.166Z,9.279872
2023-12-30T05:00:09.129Z,9.279851
2023-12-30T05:01:09.124Z,9.279886
2023-12-30T05:02:09.082Z,9.279883
2023-12-30T05:03:09.104Z,9.279937
2023-12-30T05:04:10.138Z,9.279868
2023-12-30T05:05:09.035Z,9.279842
2023-12-30T05:06:08.998Z,9.279912
2023-12-30T05:07:08.983Z,9.279854
2023-12-30T05:08:09.952Z,9.279908
2023-12-30T05:09:08.956Z,9.279874
2023-12-30T05:10:08.987Z,9.279724
2023-12-30T05:11:08.952Z,9.279849
2023-12-30T05:12:08.923Z,9.279821
2023-12-30T05:13:09.386Z,9.279757
2023-12-30T05:14:08.916Z,9.279798
2023-12-30T05:15:09.033Z,9.279846
2023-12-30T05:16:08.899Z,9.279955
2023-12-30T05:17:08.826Z,9.279877
2023-12-30T05:18:08.908Z,9.279908
2023-12-30T05:19:08.836Z,9.279859
2023-12-30T05:20:08.751Z,9.279889
2023-12-30T05:21:08.907Z,9.279861
2023-12-30T05:22:08.753Z,9.279779
2023-12-30T05:23:08.700Z,9.279915
2023-12-30T05:24:08.696Z,9.279943
2023-12-30T05:25:08.705Z,9.279836
2023-12-30T05:26:08.807Z,9.279853
2023-12-30T05:27:08.626Z,9.279868
2023-12-30T05:28:08.653Z,9.279791
2023-12-30T05:29:08.585Z,9.279846
2023-12-30T05:30:08.679Z,9.279943
2023-12-30T05:31:08.682Z,9.279873
2023-12-30T05:32:08.593Z,9.279905
2023-12-30T05:33:08.583Z,9.279977
2023-12-30T05:34:08.611Z,9.279936
2023-12-30T05:35:08.643Z,9.279824
2023-12-30T05:36:08.464Z,9.279844
2023-12-30T05:37:08.528Z,9.279871
2023-12-30T05:38:08.430Z,9.279853
2023-12-30T05:39:08.509Z,9.279959
2023-12-30T05:40:08.472Z,9.280000
2023-12-30T05:41:08.384Z,9.279977
2023-12-30T05:42:08.341Z,9.279946
2023-12-30T05:43:08.446Z,9.279909
2023-12-30T05:44:08.310Z,9.279894
2023-12-30T05:45:08.298Z,9.279994
2023-12-30T05:46:08.326Z,9.279872
2023-12-30T05:47:08.266Z,9.279866
2023-12-30T05:48:08.375Z,9.279900
2023-12-30T05:49:08.395Z,9.279883
2023-12-30T05:50:08.217Z,9.279936
2023-12-30T05:51:08.177Z,9.279924
2023-12-30T05:52:08.192Z,9.279944
2023-12-30T05:53:08.155Z,9.279931
2023-12-30T05:54:08.178Z,9.279914
2023-12-30T05:55:08.187Z,9.279938
2023-12-30T05:56:08.090Z,9.279955
2023-12-30T05:57:08.086Z,9.279868
2023-12-30T05:58:08.077Z,9.279940
2023-12-30T05:59:08.069Z,9.280021
2023-12-30T06:00:08.037Z,9.280106
2023-12-30T06:01:08.064Z,9.280006
2023-12-30T06:02:08.026Z,9.279973
2023-12-30T06:03:08.128Z,9.279997
2023-12-30T06:04:08.016Z,9.280038
2023-12-30T06:05:07.947Z,9.280010
2023-12-30T06:06:07.997Z,9.280002
2023-12-30T06:07:07.905Z,9.280040
2023-12-30T06:08:07.876Z,9.280064
2023-12-30T06:09:08.847Z,9.279926
2023-12-30T06:10:07.927Z,9.279955
2023-12-30T06:11:07.809Z,9.279896
2023-12-30T06:12:07.798Z,9.280013
2023-12-30T06:13:07.867Z,9.279933
2023-12-30T06:14:07.765Z,9.279941
2023-12-30T06:15:07.840Z,9.279908
2023-12-30T06:16:07.769Z,9.279922
2023-12-30T06:17:07.722Z,9.279894
2023-12-30T06:18:07.782Z,9.279947
2023-12-30T06:19:07.752Z,9.279873
2023-12-30T06:20:07.659Z,9.279938
2023-12-30T06:21:07.801Z,9.279941
2023-12-30T06:22:07.643Z,9.280030
2023-12-30T06:23:07.582Z,9.280004
2023-12-30T06:24:07.562Z,9.280063
2023-12-30T06:25:07.575Z,9.279984
2023-12-30T06:26:07.539Z,9.279955
2023-12-30T06:27:07.531Z,9.279852
2023-12-30T06:28:07.542Z,9.279881
2023-12-30T06:29:07.560Z,9.279932
2023-12-30T06:30:07.462Z,9.279935
2023-12-30T06:31:07.543Z,9.280009
2023-12-30T06:32:07.508Z,9.279908
2023-12-30T06:33:08.084Z,9.280012
2023-12-30T06:34:07.464Z,9.280025
2023-12-30T06:35:07.339Z,9.279926
2023-12-30T06:36:08.336Z,9.279922
2023-12-30T06:37:07.371Z,9.279978
2023-12-30T06:38:07.339Z,9.279978
2023-12-30T06:39:07.273Z,9.279923
2023-12-30T06:40:07.274Z,9.279917
2023-12-30T06:41:07.265Z,9.279950
2023-12-30T06:42:07.208Z,9.279993
2023-12-30T06:43:07.411Z,9.279955
2023-12-30T06:44:07.205Z,9.279956
2023-12-30T06:45:07.187Z,9.279958
2023-12-30T06:46:07.214Z,9.280031
2023-12-30T06:47:07.126Z,9.280022
2023-12-30T06:48:07.171Z,9.279982
2023-12-30T06:49:07.142Z,9.279926
2023-12-30T06:50:07.072Z,9.279958
2023-12-30T06:51:07.037Z,9.279928
2023-12-30T06:52:07.104Z,9.279913
2023-12-30T06:53:07.070Z,9.279989
2023-12-30T06:54:07.039Z,9.280030
2023-12-30T06:55:15.409Z,9.279971
2023-12-30T06:56:08.002Z,9.279920
2023-12-30T06:57:06.925Z,9.279932
2023-12-30T06:58:06.912Z,9.279998
2023-12-30T06:59:06.900Z,9.279946
2023-12-30T07:00:07.887Z,9.280021
2023-12-30T07:01:06.938Z,9.280010
2023-12-30T07:02:06.843Z,9.279875
2023-12-30T07:03:07.135Z,9.279876
2023-12-30T07:04:06.849Z,9.279914
2023-12-30T07:05:06.823Z,9.279810
2023-12-30T07:06:06.802Z,9.279898
2023-12-30T07:07:06.766Z,9.279898
2023-12-30T07:08:06.718Z,9.280042
2023-12-30T07:09:06.705Z,9.279979
2023-12-30T07:10:06.789Z,9.279980
2023-12-30T07:11:06.696Z,9.279946
2023-12-30T07:12:06.619Z,9.279979
2023-12-30T07:13:07.035Z,9.279957
2023-12-30T07:14:06.599Z,9.279971
2023-12-30T07:15:06.578Z,9.280008
2023-12-30T07:16:06.560Z,9.279897
2023-12-30T07:17:06.679Z,9.279892
2023-12-30T07:18:06.646Z,9.279974
2023-12-30T07:19:06.630Z,9.279881
2023-12-30T07:20:06.482Z,9.279927
2023-12-30T07:21:06.461Z,9.279943
2023-12-30T07:22:06.488Z,9.279923
2023-12-30T07:23:06.504Z,9.279794
2023-12-30T07:24:06.409Z,9.279867
2023-12-30T07:25:06.401Z,9.279878
2023-12-30T07:26:06.386Z,9.279902
2023-12-30T07:27:06.329Z,9.279974
2023-12-30T07:28:06.365Z,9.279917
2023-12-30T07:29:06.298Z,9.279873
2023-12-30T07:30:06.388Z,9.279911
2023-12-30T07:31:06.302Z,9.279903
2023-12-30T07:32:06.255Z,9.279860
2023-12-30T07:33:06.761Z,9.279962
2023-12-30T07:34:06.257Z,9.279900
2023-12-30T07:35:06.228Z,9.279694
2023-12-30T07:36:06.161Z,9.279878
2023-12-30T07:37:06.201Z,9.279876
2023-12-30T07:38:06.123Z,9.279881
2023-12-30T07:39:06.179Z,9.279977
2023-12-30T07:40:06.103Z,9.279936
2023-12-30T07:41:06.086Z,9.279938
2023-12-30T07:42:06.072Z,9.279897
2023-12-30T07:43:06.409Z,9.279937
2023-12-30T07:44:06.049Z,9.279890
2023-12-30T07:45:06.016Z,9.279900
2023-12-30T07:46:06.011Z,9.279922
2023-12-30T07:47:05.979Z,9.279933
2023-12-30T07:48:06.037Z,9.279828
2023-12-30T07:49:06.046Z,9.279921
2023-12-30T07:50:06.157Z,9.279931
2023-12-30T07:51:05.903Z,9.279901
2023-12-30T07:52:05.929Z,9.279874
2023-12-30T07:53:06.293Z,9.279582
2023-12-30T07:54:05.839Z,9.279614
2023-12-30T07:55:05.835Z,9.279868
2023-12-30T07:56:05.837Z,9.279725
2023-12-30T07:57:05.784Z,9.279952
2023-12-30T07:58:05.774Z,9.279993
2023-12-30T07:59:05.777Z,9.279885
2023-12-30T08:00:05.835Z,9.279931
2023-12-30T08:01:05.756Z,9.280136
2023-12-30T08:02:05.710Z,9.280042
2023-12-30T08:03:06.069Z,9.279943
2023-12-30T08:04:05.702Z,9.279943
2023-12-30T08:05:05.704Z,9.280062
2023-12-30T08:06:05.621Z,9.280050
2023-12-30T08:07:05.777Z,9.279973
2023-12-30T08:08:05.592Z,9.279838
2023-12-30T08:09:05.547Z,9.279876
2023-12-30T08:10:05.609Z,9.280029
2023-12-30T08:11:05.594Z,9.279982
2023-12-30T08:12:05.679Z,9.279919
2023-12-30T08:13:05.657Z,9.279904
2023-12-30T08:14:06.650Z,9.279922
2023-12-30T08:15:05.451Z,9.279911
2023-12-30T08:16:05.476Z,9.279999
2023-12-30T08:17:05.420Z,9.279990
2023-12-30T08:18:05.467Z,9.279940
2023-12-30T08:19:05.403Z,9.279946
2023-12-30T08:20:05.375Z,9.279928
2023-12-30T08:21:05.346Z,9.279875
2023-12-30T08:22:05.434Z,9.279911
2023-12-30T08:23:05.715Z,9.279891
2023-12-30T08:24:05.300Z,9.279940
2023-12-30T08:25:05.271Z,9.279957
2023-12-30T08:26:05.260Z,9.280003
2023-12-30T08:27:05.237Z,9.279990
2023-12-30T08:28:05.238Z,9.279887
2023-12-30T08:29:05.268Z,9.279930
2023-12-30T08:30:05.204Z,9.279955
2023-12-30T08:31:05.252Z,9.279860
2023-12-30T08:32:06.076Z,9.280046
2023-12-30T08:33:05.746Z,9.280008
2023-12-30T08:34:05.294Z,9.279986
2023-12-30T08:35:05.146Z,9.279945
2023-12-30T08:36:05.057Z,9.279858
2023-12-30T08:37:05.060Z,9.279911
2023-12-30T08:38:05.068Z,9.279892
2023-12-30T08:39:05.014Z,9.279850
2023-12-30T08:40:05.195Z,9.279933
2023-12-30T08:41:04.978Z,9.279928
2023-12-30T08:42:04.954Z,9.279911
2023-12-30T08:43:05.435Z,9.279871
2023-12-30T08:44:04.914Z,9.279938
2023-12-30T08:45:05.078Z,9.280027
2023-12-30T08:46:04.961Z,9.280070
2023-12-30T08:47:04.969Z,9.280081
2023-12-30T08:48:04.882Z,9.280115
2023-12-30T08:49:06.515Z,9.280113
2023-12-30T08:50:04.850Z,9.280241
2023-12-30T08:51:04.855Z,9.280281
2023-12-30T08:52:04.868Z,9.280226
2023-12-30T08:53:05.132Z,9.280096
2023-12-30T08:54:04.784Z,9.279926
2023-12-30T08:55:04.777Z,9.280051
2023-12-30T08:56:04.734Z,9.280175
2023-12-30T08:57:04.698Z,9.280206
2023-12-30T08:58:04.725Z,9.279949
2023-12-30T08:59:04.673Z,9.279984
2023-12-30T09:00:04.646Z,9.279885
2023-12-30T09:01:04.709Z,9.279834
2023-12-30T09:02:04.658Z,9.279897
2023-12-30T09:03:04.816Z,9.279875
2023-12-30T09:04:04.728Z,9.279911
2023-12-30T09:05:04.593Z,9.279875
2023-12-30T09:06:04.576Z,9.279852
2023-12-30T09:07:04.572Z,9.279897
2023-12-30T09:08:04.510Z,9.279930
2023-12-30T09:09:04.483Z,9.279840
2023-12-30T09:10:04.507Z,9.279885
2023-12-30T09:11:04.474Z,9.279853
2023-12-30T09:12:04.445Z,9.279813
2023-12-30T09:13:04.841Z,9.279902
2023-12-30T09:14:05.416Z,9.279818
2023-12-30T09:15:04.412Z,9.279729
2023-12-30T09:16:04.383Z,9.279848
2023-12-30T09:17:04.400Z,9.279862
2023-12-30T09:18:04.621Z,9.279881
2023-12-30T09:19:04.451Z,9.279922
2023-12-30T09:20:05.333Z,9.279852
2023-12-30T09:21:05.291Z,9.279818
2023-12-30T09:22:04.316Z,9.279805
2023-12-30T09:23:04.517Z,9.279863
2023-12-30T09:24:04.248Z,9.280034
2023-12-30T09:25:04.231Z,9.280022
2023-12-30T09:26:04.288Z,9.279942
2023-12-30T09:27:04.180Z,9.279804
2023-12-30T09:28:04.180Z,9.279712
2023-12-30T09:29:04.190Z,9.279757
2023-12-30T09:30:04.135Z,9.279872
2023-12-30T09:31:04.496Z,9.279900
2023-12-30T09:32:04.082Z,9.279879
2023-12-30T09:33:04.780Z,9.279856
2023-12-30T09:34:04.129Z,9.279963
2023-12-30T09:35:04.291Z,9.280040
2023-12-30T09:36:04.033Z,9.279918
2023-12-30T09:37:04.039Z,9.279842
2023-12-30T09:38:03.992Z,9.279803
2023-12-30T09:39:03.953Z,9.279817
2023-12-30T09:40:04.071Z,9.280025
2023-12-30T09:41:03.947Z,9.279847
2023-12-30T09:42:03.921Z,9.279852
2023-12-30T09:43:04.146Z,9.279963
2023-12-30T09:44:03.903Z,9.279908
2023-12-30T09:45:03.870Z,9.279834
2023-12-30T09:46:05.860Z,9.279881
2023-12-30T09:47:04.805Z,9.279913
2023-12-30T09:48:03.840Z,9.279894
2023-12-30T09:49:03.909Z,9.279964
2023-12-30T09:50:04.768Z,9.279936
2023-12-30T09:51:03.827Z,9.279900
2023-12-30T09:52:03.780Z,9.280004
2023-12-30T09:53:03.933Z,9.279938
2023-12-30T09:54:03.773Z,9.279936
2023-12-30T09:55:03.767Z,9.279882
2023-12-30T09:56:03.650Z,9.279967
2023-12-30T09:57:03.813Z,9.279952
2023-12-30T09:58:03.643Z,9.279952
2023-12-30T09:59:03.618Z,9.279851
2023-12-30T10:00:03.596Z,9.279821
2023-12-30T10:01:03.643Z,9.279814
2023-12-30T10:02:03.619Z,9.279857
2023-12-30T10:03:03.722Z,9.279957
2023-12-30T10:04:03.557Z,9.279904
2023-12-30T10:05:03.538Z,9.279892
2023-12-30T10:06:03.517Z,9.279912
2023-12-30T10:07:04.573Z,9.279880
2023-12-30T10:08:03.486Z,9.279930
2023-12-30T10:09:03.422Z,9.280017
2023-12-30T10:10:03.441Z,9.279958
2023-12-30T10:11:04.412Z,9.279840
2023-12-30T10:12:03.448Z,9.279886
2023-12-30T10:13:03.688Z,9.279939
2023-12-30T10:14:03.334Z,9.279923
2023-12-30T10:15:03.345Z,9.279950
2023-12-30T10:16:03.354Z,9.280021
2023-12-30T10:17:03.314Z,9.279972
2023-12-30T10:18:03.342Z,9.280009
2023-12-30T10:19:03.387Z,9.280016
2023-12-30T10:20:03.296Z,9.280001
2023-12-30T10:21:03.264Z,9.279932
2023-12-30T10:22:03.267Z,9.279959
2023-12-30T10:23:03.529Z,9.279931
2023-12-30T10:24:03.430Z,9.279940
2023-12-30T10:25:03.185Z,9.279883
2023-12-30T10:26:03.149Z,9.279891
2023-12-30T10:27:03.133Z,9.279931
2023-12-30T10:28:03.240Z,9.279835
2023-12-30T10:29:03.078Z,9.279729
2023-12-30T10:30:03.143Z,9.279562
2023-12-30T10:31:03.140Z,9.279590
2023-12-30T10:32:03.032Z,9.279745
2023-12-30T10:33:03.155Z,9.279681
2023-12-30T10:34:03.122Z,9.279614
2023-12-30T10:35:03.043Z,9.279725
2023-12-30T10:36:02.995Z,9.280014
2023-12-30T10:37:03.023Z,9.280138
2023-12-30T10:38:02.953Z,9.279759
2023-12-30T10:39:02.928Z,9.279789
2023-12-30T10:40:02.963Z,9.279862
2023-12-30T10:41:03.929Z,9.279762
2023-12-30T10:42:02.858Z,9.279872
2023-12-30T10:43:03.038Z,9.279834
2023-12-30T10:44:02.826Z,9.279827
2023-12-30T10:45:03.885Z,9.279708
2023-12-30T10:46:02.808Z,9.279664
2023-12-30T10:47:02.806Z,9.279691
2023-12-30T10:48:02.825Z,9.279696
2023-12-30T10:49:02.880Z,9.279828
2023-12-30T10:50:02.764Z,9.279915
2023-12-30T10:51:02.714Z,9.279916
2023-12-30T10:52:02.728Z,9.279840
2023-12-30T10:53:03.039Z,9.279727
2023-12-30T10:54:02.647Z,9.279688
2023-12-30T10:55:02.695Z,9.279761
2023-12-30T10:56:02.629Z,9.279963
2023-12-30T10:57:02.638Z,9.279852
2023-12-30T10:58:02.648Z,9.279818
2023-12-30T10:59:02.591Z,9.279912
2023-12-30T11:00:02.572Z,9.279878
2023-12-30T11:01:02.604Z,9.279898
2023-12-30T11:02:02.595Z,9.279973
2023-12-30T11:03:02.814Z,9.280030
2023-12-30T11:04:02.688Z,9.279692
2023-12-30T11:05:02.641Z,9.279785
2023-12-30T11:06:03.509Z,9.279797
2023-12-30T11:07:02.501Z,9.279667
2023-12-30T11:08:02.431Z,9.279698
2023-12-30T11:09:02.562Z,9.279810
2023-12-30T11:10:02.406Z,9.279904
2023-12-30T11:11:02.378Z,9.279625
2023-12-30T11:12:02.348Z,9.279821
2023-12-30T11:13:02.697Z,9.279881
2023-12-30T11:14:02.355Z,9.279772
2023-12-30T11:15:02.350Z,9.279719
2023-12-30T11:16:02.686Z,9.279736
2023-12-30T11:17:03.268Z,9.279743
2023-12-30T11:18:02.292Z,9.279685
2023-12-30T11:19:02.376Z,9.279688
2023-12-30T11:20:02.318Z,9.279640
2023-12-30T11:21:02.230Z,9.279623
2023-12-30T11:22:02.251Z,9.279868
2023-12-30T11:23:02.536Z,9.279861
2023-12-30T11:24:02.141Z,9.279863
2023-12-30T11:25:02.179Z,9.279742
2023-12-30T11:26:02.109Z,9.279706
2023-12-30T11:27:02.097Z,9.279726
2023-12-30T11:28:02.120Z,9.279737
2023-12-30T11:29:02.089Z,9.279747
2023-12-30T11:30:02.054Z,9.279650
2023-12-30T11:31:02.242Z,9.279765
2023-12-30T11:32:02.005Z,9.279818
2023-12-30T11:33:02.279Z,9.279781
2023-12-30T11:34:02.117Z,9.279695
2023-12-30T11:35:02.212Z,9.279767
2023-12-30T11:36:01.946Z,9.279730
2023-12-30T11:37:02.012Z,9.279802
2023-12-30T11:38:01.965Z,9.279823
2023-12-30T11:39:01.885Z,9.279819
2023-12-30T11:40:01.903Z,9.279800
2023-12-30T11:41:01.855Z,9.279819
2023-12-30T11:42:01.829Z,9.279877
2023-12-30T11:43:02.150Z,9.279878
2023-12-30T11:44:01.792Z,9.279784
2023-12-30T11:45:01.783Z,9.279782